Terminal Aerodrome Forecast
Issued by NWS

Home | Current Version | Previous Version | Text Only | Print | Product List | Glossary On
Versions: 1 2 3 4 5 6 7 8 9 10 11 12 13 14 15 16 17 18 19
000
FTUS42 KILM 270711 AAA
TAFCRE
TAF AMD
KCRE 270711Z 2707/2806 00000KT 1 1/2SM BR SKC
     FM271200 09007KT P6SM FEW250
     FM271900 14008KT P6SM SCT250
     FM280000 15004KT P6SM BKN100=

USA.gov is the U.S. government's official web portal to all federal, state and local government web resources and services.